createdAt,value
2022-10-24T00:01:13.252Z,95240.69
2022-10-24T00:03:39.808Z,95232.81
2022-10-24T00:06:08.147Z,95237.66
2022-10-24T00:08:36.530Z,95241.81
2022-10-24T00:11:09.232Z,95232.00
2022-10-24T00:13:35.748Z,95219.00
2022-10-24T00:16:02.293Z,95215.34
2022-10-24T00:18:29.165Z,95205.53
2022-10-24T00:20:56.108Z,95193.00
2022-10-24T00:23:22.681Z,95199.09
2022-10-24T00:25:49.210Z,95185.16
2022-10-24T00:28:15.718Z,95205.69
2022-10-24T00:30:42.249Z,95212.63
2022-10-24T00:33:08.837Z,95205.13
2022-10-24T00:35:35.563Z,95221.03
2022-10-24T00:38:02.090Z,95230.06
2022-10-24T00:40:28.823Z,95248.72
2022-10-24T00:42:55.323Z,95244.19
2022-10-24T00:46:03.990Z,95231.28
2022-10-24T00:48:41.755Z,95238.91
2022-10-24T00:51:16.407Z,95245.28
2022-10-24T00:53:47.683Z,95231.66
2022-10-24T00:56:16.894Z,95205.00
2022-10-24T00:58:45.069Z,95212.50
2022-10-24T01:01:13.198Z,95217.81
2022-10-24T01:03:40.059Z,95228.88
2022-10-24T01:06:18.573Z,95228.06
2022-10-24T01:09:06.347Z,95217.22
2022-10-24T01:11:51.088Z,95218.94
2022-10-24T01:14:50.579Z,95216.78
2022-10-24T01:17:41.826Z,95202.44
2022-10-24T01:20:28.751Z,95196.88
2022-10-24T01:23:07.061Z,95208.66
2022-10-24T01:25:38.528Z,95210.94
2022-10-24T01:28:11.447Z,95191.31
2022-10-24T01:30:55.854Z,95198.13
2022-10-24T01:33:33.053Z,95198.19
2022-10-24T01:36:13.697Z,95182.41
2022-10-24T01:38:51.342Z,95182.41
2022-10-24T01:41:21.522Z,95196.44
2022-10-24T01:43:56.622Z,95195.69
2022-10-24T01:46:27.720Z,95206.28
2022-10-24T01:49:13.931Z,95207.47
2022-10-24T01:51:41.886Z,95208.25
2022-10-24T01:54:10.723Z,95221.03
2022-10-24T01:56:37.348Z,95214.22
2022-10-24T01:59:09.371Z,95212.69
2022-10-24T02:01:39.052Z,95216.03
2022-10-24T02:04:10.896Z,95209.59
2022-10-24T02:06:41.619Z,95211.06
2022-10-24T02:09:17.788Z,95208.06
2022-10-24T02:11:47.835Z,95214.84
2022-10-24T02:14:21.230Z,95207.34
2022-10-24T02:16:48.000Z,95227.75
2022-10-24T02:19:15.151Z,95230.00
2022-10-24T02:22:09.690Z,95237.56
2022-10-24T02:24:42.525Z,95228.44
2022-10-24T02:27:31.132Z,95235.22
2022-10-24T02:30:20.322Z,95231.38
2022-10-24T02:32:59.008Z,95260.66
2022-10-24T02:35:31.172Z,95249.88
2022-10-24T02:38:04.632Z,95235.97
2022-10-24T02:40:32.099Z,95229.00
2022-10-24T02:43:00.354Z,95210.38
2022-10-24T02:45:28.800Z,95194.25
2022-10-24T02:48:00.149Z,95188.00
2022-10-24T02:50:27.150Z,95189.41
2022-10-24T02:52:53.698Z,95203.81
2022-10-24T02:55:20.283Z,95186.78
2022-10-24T02:57:46.820Z,95182.78
2022-10-24T03:00:13.938Z,95173.41
2022-10-24T03:02:40.535Z,95184.31
2022-10-24T03:05:07.363Z,95179.81
2022-10-24T03:07:33.959Z,95188.56
2022-10-24T03:10:00.644Z,95172.97
2022-10-24T03:12:27.284Z,95168.38
2022-10-24T03:14:53.857Z,95184.66
2022-10-24T03:17:21.858Z,95182.47
2022-10-24T03:19:48.377Z,95185.94
2022-10-24T03:22:15.243Z,95201.44
2022-10-24T03:24:55.220Z,95179.91
2022-10-24T03:27:22.560Z,95184.78
2022-10-24T03:29:49.090Z,95197.34
2022-10-24T03:32:15.718Z,95186.78
2022-10-24T03:34:42.409Z,95189.84
2022-10-24T03:37:08.905Z,95202.63
2022-10-24T03:39:35.521Z,95180.38
2022-10-24T03:42:02.425Z,95179.97
2022-10-24T03:44:29.063Z,95166.13
2022-10-24T03:46:55.639Z,95161.22
2022-10-24T03:49:22.471Z,95158.25
2022-10-24T03:51:49.013Z,95158.69
2022-10-24T03:54:15.625Z,95155.31
2022-10-24T03:56:45.885Z,95160.75
2022-10-24T03:59:12.401Z,95139.97
2022-10-24T04:01:39.081Z,95131.34
2022-10-24T04:04:06.046Z,95123.47
2022-10-24T04:06:35.593Z,95116.72
2022-10-24T04:09:03.745Z,95125.16
2022-10-24T04:11:30.475Z,95119.88
2022-10-24T04:13:57.114Z,95100.72
2022-10-24T04:16:24.140Z,95116.97
2022-10-24T04:18:51.432Z,95120.47
2022-10-24T04:21:21.592Z,95128.13
2022-10-24T04:23:48.949Z,95112.28
2022-10-24T04:26:16.888Z,95100.63
2022-10-24T04:28:43.996Z,95102.56
2022-10-24T04:31:10.512Z,95117.31
2022-10-24T04:33:37.134Z,95109.38
2022-10-24T04:36:04.027Z,95108.56
2022-10-24T04:38:33.564Z,95114.34
2022-10-24T04:41:01.005Z,95110.31
2022-10-24T04:43:27.893Z,95116.34
2022-10-24T04:45:54.435Z,95111.09
2022-10-24T04:48:21.177Z,95110.72
2022-10-24T04:50:48.337Z,95097.53
2022-10-24T04:53:15.487Z,95103.25
2022-10-24T04:55:42.281Z,95120.94
2022-10-24T04:58:08.804Z,95126.19
2022-10-24T05:00:35.382Z,95128.34
2022-10-24T05:03:01.969Z,95133.28
2022-10-24T05:05:28.566Z,95151.78
2022-10-24T05:07:55.277Z,95153.22
2022-10-24T05:10:21.921Z,95139.19
2022-10-24T05:12:48.569Z,95136.06
2022-10-24T05:15:15.273Z,95109.16
2022-10-24T05:17:42.278Z,95138.53
2022-10-24T05:20:09.450Z,95146.72
2022-10-24T05:22:36.211Z,95141.44
2022-10-24T05:25:03.109Z,95137.63
2022-10-24T05:27:29.616Z,95126.38
2022-10-24T05:29:56.271Z,95108.25
2022-10-24T05:32:24.312Z,95115.84
2022-10-24T05:34:51.107Z,95122.28
2022-10-24T05:37:17.960Z,95123.38
2022-10-24T05:39:44.657Z,95113.59
2022-10-24T05:42:11.262Z,95112.94
2022-10-24T05:44:38.263Z,95105.09
2022-10-24T05:47:04.889Z,95101.00
2022-10-24T05:49:31.532Z,95114.28
2022-10-24T05:51:58.126Z,95129.03
2022-10-24T05:54:30.098Z,95121.91
2022-10-24T05:57:04.228Z,95112.47
2022-10-24T05:59:30.917Z,95111.75
2022-10-24T06:01:57.611Z,95116.97
2022-10-24T06:04:24.232Z,95108.22
2022-10-24T06:06:50.905Z,95116.53
2022-10-24T06:09:17.469Z,95111.22
2022-10-24T06:11:44.221Z,95107.06
2022-10-24T06:14:11.266Z,95101.00
2022-10-24T06:16:37.891Z,95099.50
2022-10-24T06:19:04.418Z,95111.59
2022-10-24T06:21:31.313Z,95092.25
2022-10-24T06:23:57.949Z,95100.91
2022-10-24T06:26:24.767Z,95111.47
2022-10-24T06:28:51.684Z,95106.13
2022-10-24T06:31:20.478Z,95120.41
2022-10-24T06:33:47.467Z,95120.34
2022-10-24T06:36:14.556Z,95107.41
2022-10-24T06:38:41.377Z,95094.44
2022-10-24T06:41:10.041Z,95086.84
2022-10-24T06:43:37.740Z,95091.00
2022-10-24T06:46:08.852Z,95083.94
2022-10-24T06:48:36.258Z,95081.09
2022-10-24T06:51:03.171Z,95077.66
2022-10-24T06:53:29.862Z,95082.94
2022-10-24T06:56:00.552Z,95092.75
2022-10-24T06:58:31.594Z,95101.44
2022-10-24T07:00:58.539Z,95114.97
2022-10-24T07:03:25.451Z,95124.44
2022-10-24T07:05:52.043Z,95123.63
2022-10-24T07:08:19.738Z,95118.38
2022-10-24T07:10:46.378Z,95126.63
2022-10-24T07:13:12.971Z,95140.63
2022-10-24T07:15:39.531Z,95140.25
2022-10-24T07:18:06.051Z,95148.50
2022-10-24T07:20:32.614Z,95146.94
2022-10-24T07:22:59.159Z,95146.19
2022-10-24T07:25:25.647Z,95148.44
2022-10-24T07:27:54.744Z,95151.50
2022-10-24T07:30:21.513Z,95166.50
2022-10-24T07:32:48.810Z,95173.44
2022-10-24T07:35:15.490Z,95185.84
2022-10-24T07:37:42.184Z,95195.94
2022-10-24T07:40:09.487Z,95201.53
2022-10-24T07:42:36.038Z,95203.41
2022-10-24T07:45:03.394Z,95198.72
2022-10-24T07:47:30.251Z,95210.81
2022-10-24T07:49:57.085Z,95199.47
2022-10-24T07:52:23.822Z,95191.13
2022-10-24T07:54:53.246Z,95201.78
2022-10-24T07:57:20.370Z,95216.97
2022-10-24T07:59:46.897Z,95210.16
2022-10-24T08:02:14.765Z,95208.22
2022-10-24T08:04:41.686Z,95203.41
2022-10-24T08:07:13.298Z,95202.88
2022-10-24T08:09:45.513Z,95197.25
2022-10-24T08:12:12.055Z,95203.16
2022-10-24T08:14:41.315Z,95186.81
2022-10-24T08:17:08.161Z,95220.56
2022-10-24T08:19:35.171Z,95226.66
2022-10-24T08:22:02.397Z,95202.00
2022-10-24T08:24:29.284Z,95193.19
2022-10-24T08:26:58.561Z,95199.06
2022-10-24T08:29:25.517Z,95208.06
2022-10-24T08:31:53.776Z,95225.34
2022-10-24T08:34:21.107Z,95208.22
2022-10-24T08:36:48.697Z,95201.03
2022-10-24T08:39:16.109Z,95205.38
2022-10-24T08:41:46.883Z,95195.28
2022-10-24T08:44:41.318Z,95190.63
2022-10-24T08:47:32.684Z,95196.88
2022-10-24T08:50:17.443Z,95211.91
2022-10-24T08:52:49.366Z,95204.41
2022-10-24T08:55:48.224Z,95195.78
2022-10-24T08:58:20.026Z,95204.09
2022-10-24T09:00:50.642Z,95193.56
2022-10-24T09:03:51.119Z,95205.38
2022-10-24T09:06:20.996Z,95232.69
2022-10-24T09:08:52.549Z,95252.47
2022-10-24T09:11:30.122Z,95259.69
2022-10-24T09:13:57.829Z,95275.97
2022-10-24T09:16:24.931Z,95334.44
2022-10-24T09:18:54.369Z,95344.28
2022-10-24T09:21:22.586Z,95336.28
2022-10-24T09:23:50.730Z,95331.38
2022-10-24T09:26:32.746Z,95367.00
2022-10-24T09:28:59.415Z,95317.03
2022-10-24T09:31:27.242Z,95336.81
2022-10-24T09:33:56.702Z,95352.28
2022-10-24T09:36:25.101Z,95335.59
2022-10-24T09:38:51.958Z,95339.28
2022-10-24T09:41:29.347Z,95329.03
2022-10-24T09:43:58.702Z,95338.44
2022-10-24T09:46:46.108Z,95327.22
2022-10-24T09:49:12.570Z,95335.03
2022-10-24T09:52:00.509Z,95325.16
2022-10-24T09:54:30.420Z,95343.28
2022-10-24T09:57:12.387Z,95353.09
2022-10-24T09:59:44.208Z,95388.81
2022-10-24T10:02:10.857Z,95398.69
2022-10-24T10:04:38.890Z,95415.44
2022-10-24T10:07:14.577Z,95406.66
2022-10-24T10:09:54.107Z,95344.94
2022-10-24T10:12:33.979Z,95349.81
2022-10-24T10:15:27.101Z,95356.25
2022-10-24T10:17:56.454Z,95358.19
2022-10-24T10:20:28.112Z,95367.75
2022-10-24T10:22:54.663Z,95398.03
2022-10-24T10:25:31.900Z,95423.84
2022-10-24T10:28:02.292Z,95420.09
2022-10-24T10:30:29.731Z,95414.56
2022-10-24T10:33:29.760Z,95392.50
2022-10-24T10:36:14.985Z,95386.91
2022-10-24T10:38:59.129Z,95358.22
2022-10-24T10:41:42.176Z,95346.94
2022-10-24T10:44:22.667Z,95330.63
2022-10-24T10:47:14.299Z,95324.97
2022-10-24T10:49:42.012Z,95313.50
2022-10-24T10:52:29.872Z,95304.28
2022-10-24T10:55:31.877Z,95290.94
2022-10-24T10:58:23.408Z,95312.13
2022-10-24T11:01:00.769Z,95285.09
2022-10-24T11:04:06.135Z,95302.41
2022-10-24T11:07:09.873Z,95302.88
2022-10-24T11:09:59.352Z,95294.53
2022-10-24T11:12:32.714Z,95278.50
2022-10-24T11:15:08.348Z,95293.50
2022-10-24T11:17:59.081Z,95302.16
2022-10-24T11:20:31.893Z,95321.22
2022-10-24T11:23:10.558Z,95328.25
2022-10-24T11:25:44.535Z,95325.03
2022-10-24T11:28:27.006Z,95328.03
2022-10-24T11:31:00.895Z,95321.09
2022-10-24T11:33:33.993Z,95321.22
2022-10-24T11:36:14.696Z,95337.59
2022-10-24T11:38:48.397Z,95320.31
2022-10-24T11:41:23.884Z,95334.03
2022-10-24T11:43:55.126Z,95335.88
2022-10-24T11:46:36.542Z,95338.09
2022-10-24T11:49:33.063Z,95325.63
2022-10-24T11:52:12.705Z,95328.03
2022-10-24T11:54:51.218Z,95337.97
2022-10-24T11:57:25.778Z,95333.28
2022-10-24T11:59:53.895Z,95336.97
2022-10-24T12:02:26.779Z,95333.59
2022-10-24T12:05:08.709Z,95320.25
2022-10-24T12:08:00.853Z,95315.06
2022-10-24T12:10:57.244Z,95323.25
2022-10-24T12:13:40.030Z,95336.91
2022-10-24T12:16:39.663Z,95342.19
2022-10-24T12:19:12.905Z,95325.97
2022-10-24T12:21:45.566Z,95329.00
2022-10-24T12:24:41.690Z,95315.44
2022-10-24T12:27:19.582Z,95326.81
2022-10-24T12:29:59.689Z,95325.72
2022-10-24T12:32:47.570Z,95308.94
2022-10-24T12:35:31.322Z,95322.31
2022-10-24T12:37:58.823Z,95314.34
2022-10-24T12:40:46.578Z,95319.34
2022-10-24T12:43:39.231Z,95349.75
2022-10-24T12:46:15.875Z,95317.19
2022-10-24T12:49:00.710Z,95298.69
2022-10-24T12:51:31.803Z,95310.09
2022-10-24T12:54:00.993Z,95353.47
2022-10-24T12:56:28.434Z,95330.09
2022-10-24T12:58:59.183Z,95323.91
2022-10-24T13:01:35.402Z,95346.63
2022-10-24T13:04:17.958Z,95356.66
2022-10-24T13:07:13.174Z,95348.94
2022-10-24T13:10:17.055Z,95355.50
2022-10-24T13:13:01.759Z,95349.06
2022-10-24T13:15:31.598Z,95357.31
2022-10-24T13:18:12.964Z,95358.16
2022-10-24T13:20:43.040Z,95348.66
2022-10-24T13:23:28.611Z,95352.81
2022-10-24T13:25:57.340Z,95349.81
2022-10-24T13:28:23.874Z,95345.84
2022-10-24T13:30:53.342Z,95334.19
2022-10-24T13:33:37.916Z,95317.16
2022-10-24T13:36:14.809Z,95318.91
2022-10-24T13:38:46.917Z,95313.94
2022-10-24T13:41:22.976Z,95304.84
2022-10-24T13:43:53.103Z,95306.06
2022-10-24T13:46:35.270Z,95316.06
2022-10-24T13:49:03.188Z,95309.78
2022-10-24T13:51:52.563Z,95317.97
2022-10-24T13:54:26.114Z,95323.00
2022-10-24T13:56:55.952Z,95324.22
2022-10-24T13:59:33.505Z,95319.13
2022-10-24T14:02:04.941Z,95306.28
2022-10-24T14:04:32.396Z,95305.19
2022-10-24T14:07:07.107Z,95325.84
2022-10-24T14:09:42.466Z,95306.56
2022-10-24T14:12:20.223Z,95305.53
2022-10-24T14:14:49.658Z,95308.41
2022-10-24T14:17:22.916Z,95324.13
2022-10-24T14:19:55.527Z,95318.47
2022-10-24T14:22:42.708Z,95321.13
2022-10-24T14:25:44.706Z,95327.03
2022-10-24T14:28:16.734Z,95342.06
2022-10-24T14:30:56.530Z,95337.34
2022-10-24T14:33:28.692Z,95325.91
2022-10-24T14:35:58.457Z,95348.19
2022-10-24T14:38:27.136Z,95350.84
2022-10-24T14:41:06.657Z,95334.88
2022-10-24T14:43:40.031Z,95329.72
2022-10-24T14:46:12.699Z,95330.97
2022-10-24T14:48:42.198Z,95337.97
2022-10-24T14:51:16.694Z,95333.59
2022-10-24T14:53:45.275Z,95334.31
2022-10-24T14:56:29.503Z,95322.72
2022-10-24T14:58:58.468Z,95337.00
2022-10-24T15:01:25.817Z,95333.72
2022-10-24T15:04:01.269Z,95311.84
2022-10-24T15:06:41.779Z,95275.06
2022-10-24T15:09:11.271Z,95297.78
2022-10-24T15:11:47.786Z,95313.22
2022-10-24T15:14:36.009Z,95317.66
2022-10-24T15:17:18.878Z,95308.75
2022-10-24T15:19:47.673Z,95302.34
2022-10-24T15:22:35.780Z,95295.72
2022-10-24T15:25:07.999Z,95290.63
2022-10-24T15:27:43.922Z,95299.13
2022-10-24T15:36:07.303Z,95313.72
2022-10-24T15:38:36.629Z,95311.84
2022-10-24T15:41:07.079Z,95322.41
2022-10-24T15:43:34.810Z,95318.94
2022-10-24T15:46:01.389Z,95331.03
2022-10-24T15:48:27.935Z,95325.25
2022-10-24T15:50:54.480Z,95327.69
2022-10-24T15:53:21.938Z,95327.28
2022-10-24T15:55:48.814Z,95313.81
2022-10-24T15:58:17.276Z,95303.03
2022-10-24T16:00:44.338Z,95313.34
2022-10-24T16:03:17.395Z,95314.13
2022-10-24T16:05:48.900Z,95308.81
2022-10-24T16:08:18.918Z,95316.84
2022-10-24T16:10:47.954Z,95316.16
2022-10-24T16:13:15.147Z,95314.44
2022-10-24T16:15:42.809Z,95299.69
2022-10-24T16:18:10.563Z,95325.84
2022-10-24T16:20:37.856Z,95319.97
2022-10-24T16:23:05.539Z,95329.78
2022-10-24T16:25:34.993Z,95337.41
2022-10-24T16:28:02.126Z,95334.94
2022-10-24T16:30:30.886Z,95335.81
2022-10-24T16:32:57.526Z,95334.06
2022-10-24T16:35:29.575Z,95327.31
2022-10-24T16:37:58.177Z,95327.75
2022-10-24T16:40:26.973Z,95340.63
2022-10-24T16:42:55.572Z,95351.28
2022-10-24T16:45:22.886Z,95361.88
2022-10-24T16:47:50.074Z,95362.69
2022-10-24T16:50:24.361Z,95364.22
2022-10-24T16:52:56.008Z,95354.78
2022-10-24T16:55:23.397Z,95367.63
2022-10-24T16:57:50.383Z,95362.75
2022-10-24T17:00:18.939Z,95367.25
2022-10-24T17:02:48.498Z,95373.34
2022-10-24T17:05:15.961Z,95379.38
2022-10-24T17:07:43.287Z,95380.91
2022-10-24T17:10:11.791Z,95374.88
2022-10-24T17:12:40.957Z,95376.47
2022-10-24T17:15:08.601Z,95379.47
2022-10-24T17:17:35.359Z,95379.47
2022-10-24T17:20:03.051Z,95387.03
2022-10-24T17:22:29.798Z,95379.09
2022-10-24T17:24:56.817Z,95382.50
2022-10-24T17:27:24.138Z,95378.38
2022-10-24T17:29:51.026Z,95376.47
2022-10-24T17:32:17.870Z,95376.50
2022-10-24T17:34:49.975Z,95378.75
2022-10-24T17:37:24.697Z,95392.34
2022-10-24T17:40:22.620Z,95386.31
2022-10-24T17:42:49.753Z,95390.06
2022-10-24T17:45:23.367Z,95384.78
2022-10-24T17:47:50.053Z,95392.31
2022-10-24T17:50:17.770Z,95387.44
2022-10-24T17:52:50.286Z,95397.63
2022-10-24T17:55:41.416Z,95396.09
2022-10-24T17:58:08.988Z,95387.81
2022-10-24T18:00:35.918Z,95396.84
2022-10-24T18:03:02.973Z,95388.56
2022-10-24T18:05:30.079Z,95383.25
2022-10-24T18:07:57.914Z,95395.28
2022-10-24T18:10:24.497Z,95407.34
2022-10-24T18:12:51.406Z,95396.78
2022-10-24T18:15:21.342Z,95404.34
2022-10-24T18:17:48.648Z,95405.50
2022-10-24T18:20:16.011Z,95403.63
2022-10-24T18:22:44.184Z,95402.88
2022-10-24T18:25:13.302Z,95400.63
2022-10-24T18:27:40.997Z,95411.19
2022-10-24T18:30:08.438Z,95412.66
2022-10-24T18:32:35.279Z,95417.97
2022-10-24T18:35:02.134Z,95412.69
2022-10-24T18:37:29.670Z,95426.25
2022-10-24T18:39:56.453Z,95426.63
2022-10-24T18:42:48.335Z,95422.50
2022-10-24T18:45:21.480Z,95420.22
2022-10-24T18:47:49.569Z,95411.94
2022-10-24T18:50:19.710Z,95403.25
2022-10-24T18:52:49.814Z,95412.69
2022-10-24T18:55:26.324Z,95410.41
2022-10-24T18:57:53.350Z,95410.72
2022-10-24T19:00:25.938Z,95412.97
2022-10-24T19:03:01.394Z,95408.06
2022-10-24T19:05:52.015Z,95408.41
2022-10-24T19:08:23.709Z,95415.56
2022-10-24T19:10:55.977Z,95418.56
2022-10-24T19:13:24.528Z,95419.25
2022-10-24T19:16:00.232Z,95413.97
2022-10-24T19:18:30.459Z,95411.69
2022-10-24T19:20:57.047Z,95428.63
2022-10-24T19:23:24.768Z,95425.19
2022-10-24T19:25:51.888Z,95423.69
2022-10-24T19:28:19.903Z,95422.13
2022-10-24T19:30:48.051Z,95419.13
2022-10-24T19:33:16.429Z,95415.34
2022-10-24T19:35:47.666Z,95425.84
2022-10-24T19:38:18.149Z,95425.13
2022-10-24T19:40:46.457Z,95413.03
2022-10-24T19:43:13.830Z,95409.31
2022-10-24T19:45:49.951Z,95405.50
2022-10-24T19:48:22.590Z,95402.47
2022-10-24T19:50:50.277Z,95409.63
2022-10-24T19:53:16.939Z,95407.41
2022-10-24T19:55:43.736Z,95416.81
2022-10-24T19:58:12.687Z,95419.81
2022-10-24T20:00:39.944Z,95420.56
2022-10-24T20:03:06.696Z,95419.00
2022-10-24T20:05:33.568Z,95426.47
2022-10-24T20:08:00.097Z,95422.72
2022-10-24T20:10:26.621Z,95429.53
2022-10-24T20:12:53.175Z,95426.19
2022-10-24T20:15:19.912Z,95428.88
2022-10-24T20:17:46.837Z,95434.25
2022-10-24T20:20:13.501Z,95430.91
2022-10-24T20:22:40.039Z,95430.94
2022-10-24T20:25:07.659Z,95432.81
2022-10-24T20:27:34.250Z,95432.09
2022-10-24T20:30:00.788Z,95432.13
2022-10-24T20:32:27.287Z,95430.63
2022-10-24T20:34:53.818Z,95437.44
2022-10-24T20:37:20.314Z,95445.75
2022-10-24T20:39:46.923Z,95452.59
2022-10-24T20:42:13.497Z,95452.63
2022-10-24T20:44:39.993Z,95444.34
2022-10-24T20:47:06.508Z,95446.63
2022-10-24T20:49:33.067Z,95442.84
2022-10-24T20:51:59.663Z,95439.84
2022-10-24T20:54:26.231Z,95448.50
2022-10-24T20:56:52.801Z,95454.16
2022-10-24T20:59:19.421Z,95447.38
2022-10-24T21:01:46.146Z,95464.31
2022-10-24T21:04:14.678Z,95462.81
2022-10-24T21:06:43.759Z,95470.72
2022-10-24T21:09:10.529Z,95463.94
2022-10-24T21:11:38.519Z,95449.59
2022-10-24T21:14:07.586Z,95461.66
2022-10-24T21:16:34.929Z,95469.19
2022-10-24T21:19:02.263Z,95477.50
2022-10-24T21:21:29.199Z,95462.41
2022-10-24T21:24:02.324Z,95477.13
2022-10-24T21:26:35.042Z,95466.19
2022-10-24T21:29:14.832Z,95468.09
2022-10-24T21:31:51.910Z,95462.81
2022-10-24T21:34:19.467Z,95470.72
2022-10-24T21:36:46.464Z,95471.47
2022-10-24T21:39:14.858Z,95474.53
2022-10-24T21:41:41.860Z,95485.84
2022-10-24T21:44:08.381Z,95489.25
2022-10-24T21:46:35.141Z,95489.22
2022-10-24T21:49:01.718Z,95490.34
2022-10-24T21:51:30.550Z,95496.00
2022-10-24T21:54:02.817Z,95495.66
2022-10-24T21:56:32.231Z,95502.44
2022-10-24T21:59:04.901Z,95513.00
2022-10-24T22:01:34.364Z,95529.22
2022-10-24T22:04:01.622Z,95552.22
2022-10-24T22:06:29.876Z,95562.06
2022-10-24T22:08:56.754Z,95551.47
2022-10-24T22:11:25.729Z,95544.72
2022-10-24T22:13:53.196Z,95540.16
2022-10-24T22:16:22.627Z,95517.88
2022-10-24T22:18:49.925Z,95509.22
2022-10-24T22:21:24.496Z,95528.09
2022-10-24T22:23:51.103Z,95526.56
2022-10-24T22:26:18.011Z,95526.19
2022-10-24T22:28:44.569Z,95529.19
2022-10-24T22:31:13.976Z,95528.06
2022-10-24T22:33:41.522Z,95518.63
2022-10-24T22:36:27.171Z,95519.75
2022-10-24T22:38:54.492Z,95506.13
2022-10-24T22:41:22.409Z,95511.06
2022-10-24T22:43:49.819Z,95510.31
2022-10-24T22:46:38.005Z,95514.13
2022-10-24T22:49:15.662Z,95514.88
2022-10-24T22:51:42.460Z,95532.97
2022-10-24T22:54:15.603Z,95536.38
2022-10-24T22:56:42.696Z,95539.41
2022-10-24T22:59:09.483Z,95541.31
2022-10-24T23:01:53.995Z,95541.28
2022-10-24T23:04:23.222Z,95548.09
2022-10-24T23:07:18.400Z,95558.25
2022-10-24T23:09:44.989Z,95542.44
2022-10-24T23:12:16.034Z,95546.94
2022-10-24T23:14:43.958Z,95547.34
2022-10-24T23:17:14.115Z,95556.75
2022-10-24T23:19:45.464Z,95550.72
2022-10-24T23:22:23.488Z,95572.63
2022-10-24T23:24:51.788Z,95565.44
2022-10-24T23:27:24.293Z,95570.38
2022-10-24T23:29:51.286Z,95574.50
2022-10-24T23:32:25.459Z,95582.44
2022-10-24T23:34:52.974Z,95583.97
2022-10-24T23:37:37.303Z,95559.03
2022-10-24T23:40:14.561Z,95568.09
2022-10-24T23:42:41.529Z,95573.41
2022-10-24T23:45:20.099Z,95592.25
2022-10-24T23:47:50.020Z,95591.50
2022-10-24T23:50:28.565Z,95590.03
2022-10-24T23:53:23.325Z,95590.75
2022-10-24T23:55:50.633Z,95586.59
2022-10-24T23:58:17.731Z,95589.25
